Twin Rocks, Pennsylvania
Current Conditions -  °F | °C
As of 10:54 AM on Sunday 21 Dec 2014 (Local Time) from KJST Reporting Station
Overcast Overcast  
Wind Chill: 19°   Ceiling: 1300
Heat Index: 25°   Visibility: 10mi
Dew Point: 19°   Wind: 5mph
Humidity: 78%   Direction: 270°W
Pressure: 30.24"   Gusts: NA
Location:  40.5°N, 78.87°W
Report Text: KJST 211554Z AUTO 27004KT 10SM OVC013 M04/M07 A3024 RMK AO2 SLP272 T10391072
Loading
Personal Weather Stations






























Interactive Weather Map New forecast layout! Learn more

10-Day Weather Forecast

Advertisements
Track Severe Weather on mobile